sensor_id;sensor_type;location;lat;lon;timestamp;pressure;altitude;pressure_sealevel;temperature;humidity
50852;BME280;43953;45.508;-122.806;2023-04-16T00:00:15;101070.88;;;16.63;41.61
50852;BME280;43953;45.508;-122.806;2023-04-16T00:00:47;101080.69;;;16.64;41.68
50852;BME280;43953;45.508;-122.806;2023-04-16T00:01:19;101074.41;;;16.64;41.47
50852;BME280;43953;45.508;-122.806;2023-04-16T00:01:51;101077.72;;;16.66;41.49
50852;BME280;43953;45.508;-122.806;2023-04-16T00:02:22;101077.97;;;16.64;41.52
50852;BME280;43953;45.508;-122.806;2023-04-16T00:02:54;101080.69;;;16.64;41.31
50852;BME280;43953;45.508;-122.806;2023-04-16T00:03:26;101073.00;;;16.61;41.29
50852;BME280;43953;45.508;-122.806;2023-04-16T00:03:58;101075.72;;;16.61;40.86
50852;BME280;43953;45.508;-122.806;2023-04-16T00:04:29;101073.00;;;16.61;40.74
50852;BME280;43953;45.508;-122.806;2023-04-16T00:05:01;101071.38;;;16.60;40.96
50852;BME280;43953;45.508;-122.806;2023-04-16T00:05:34;101069.69;;;16.59;41.21
50852;BME280;43953;45.508;-122.806;2023-04-16T00:06:06;101065.34;;;16.58;41.45
50852;BME280;43953;45.508;-122.806;2023-04-16T00:06:37;101071.84;;;16.57;40.88
50852;BME280;43953;45.508;-122.806;2023-04-16T00:07:09;101071.25;;;16.55;40.72
50852;BME280;43953;45.508;-122.806;2023-04-16T00:07:41;101071.50;;;16.53;40.69
50852;BME280;43953;45.508;-122.806;2023-04-16T00:08:13;101073.63;;;16.51;41.03
50852;BME280;43953;45.508;-122.806;2023-04-16T00:08:44;101072.81;;;16.51;41.13
50852;BME280;43953;45.508;-122.806;2023-04-16T00:09:16;101081.53;;;16.53;41.25
50852;BME280;43953;45.508;-122.806;2023-04-16T00:09:48;101082.38;;;16.53;40.94
50852;BME280;43953;45.508;-122.806;2023-04-16T00:10:19;101076.09;;;16.53;40.82
50852;BME280;43953;45.508;-122.806;2023-04-16T00:10:52;101076.09;;;16.53;41.01
50852;BME280;43953;45.508;-122.806;2023-04-16T00:11:24;101074.44;;;16.52;40.88
50852;BME280;43953;45.508;-122.806;2023-04-16T00:11:56;101077.16;;;16.52;40.68
50852;BME280;43953;45.508;-122.806;2023-04-16T00:12:27;101078.00;;;16.52;40.82
50852;BME280;43953;45.508;-122.806;2023-04-16T00:12:59;101079.88;;;16.52;40.69
50852;BME280;43953;45.508;-122.806;2023-04-16T00:13:31;101073.63;;;16.51;40.42
50852;BME280;43953;45.508;-122.806;2023-04-16T00:14:03;101072.22;;;16.49;40.47
50852;BME280;43953;45.508;-122.806;2023-04-16T00:14:35;101071.94;;;16.50;40.63
50852;BME280;43953;45.508;-122.806;2023-04-16T00:15:07;101076.47;;;16.45;40.52
50852;BME280;43953;45.508;-122.806;2023-04-16T00:15:39;101073.75;;;16.45;40.88
50852;BME280;43953;45.508;-122.806;2023-04-16T00:16:11;101069.16;;;16.45;41.06
50852;BME280;43953;45.508;-122.806;2023-04-16T00:16:42;101069.97;;;16.46;40.96
50852;BME280;43953;45.508;-122.806;2023-04-16T00:17:14;101072.69;;;16.46;41.00
50852;BME280;43953;45.508;-122.806;2023-04-16T00:17:46;101066.19;;;16.47;41.14
50852;BME280;43953;45.508;-122.806;2023-04-16T00:18:18;101075.75;;;16.49;41.04
50852;BME280;43953;45.508;-122.806;2023-04-16T00:18:51;101065.69;;;16.50;41.12
50852;BME280;43953;45.508;-122.806;2023-04-16T00:19:23;101073.63;;;16.51;41.67
50852;BME280;43953;45.508;-122.806;2023-04-16T00:19:54;101065.22;;;16.53;41.78
50852;BME280;43953;45.508;-122.806;2023-04-16T00:20:26;101071.50;;;16.53;41.90
50852;BME280;43953;45.508;-122.806;2023-04-16T00:20:58;101072.06;;;16.55;41.77
50852;BME280;43953;45.508;-122.806;2023-04-16T00:21:30;101063.69;;;16.57;41.76
50852;BME280;43953;45.508;-122.806;2023-04-16T00:22:02;101070.75;;;16.58;42.06
50852;BME280;43953;45.508;-122.806;2023-04-16T00:22:33;101068.06;;;16.58;42.04
50852;BME280;43953;45.508;-122.806;2023-04-16T00:23:05;101064.25;;;16.59;42.25
50852;BME280;43953;45.508;-122.806;2023-04-16T00:23:37;101067.56;;;16.61;42.43
50852;BME280;43953;45.508;-122.806;2023-04-16T00:24:09;101060.00;;;16.63;42.47
50852;BME280;43953;45.508;-122.806;2023-04-16T00:24:41;101063.28;;;16.65;42.55
50852;BME280;43953;45.508;-122.806;2023-04-16T00:25:13;101064.97;;;16.66;42.49
50852;BME280;43953;45.508;-122.806;2023-04-16T00:25:45;101065.78;;;16.67;42.48
50852;BME280;43953;45.508;-122.806;2023-04-16T00:26:16;101065.78;;;16.67;42.66
50852;BME280;43953;45.508;-122.806;2023-04-16T00:26:48;101061.16;;;16.67;42.52
50852;BME280;43953;45.508;-122.806;2023-04-16T00:27:20;101056.53;;;16.68;42.68
50852;BME280;43953;45.508;-122.806;2023-04-16T00:27:52;101060.94;;;16.69;42.52
50852;BME280;43953;45.508;-122.806;2023-04-16T00:28:24;101059.03;;;16.69;42.71
50852;BME280;43953;45.508;-122.806;2023-04-16T00:28:56;101056.31;;;16.69;42.71
50852;BME280;43953;45.508;-122.806;2023-04-16T00:29:27;101063.66;;;16.69;42.86
50852;BME280;43953;45.508;-122.806;2023-04-16T00:30:01;101059.03;;;16.69;42.78
50852;BME280;43953;45.508;-122.806;2023-04-16T00:30:33;101063.41;;;16.70;43.04
50852;BME280;43953;45.508;-122.806;2023-04-16T00:31:05;101062.34;;;16.71;43.01
50852;BME280;43953;45.508;-122.806;2023-04-16T00:31:37;101061.50;;;16.71;43.20
50852;BME280;43953;45.508;-122.806;2023-04-16T00:32:09;101059.63;;;16.71;43.20
50852;BME280;43953;45.508;-122.806;2023-04-16T00:32:41;101061.28;;;16.72;43.27
50852;BME280;43953;45.508;-122.806;2023-04-16T00:33:12;101060.19;;;16.73;43.46
50852;BME280;43953;45.508;-122.806;2023-04-16T00:33:44;101061.88;;;16.74;43.04
50852;BME280;43953;45.508;-122.806;2023-04-16T00:34:16;101055.59;;;16.74;42.89
50852;BME280;43953;45.508;-122.806;2023-04-16T00:34:48;101055.34;;;16.75;43.05
50852;BME280;43953;45.508;-122.806;2023-04-16T00:35:19;101054.53;;;16.75;43.15
50852;BME280;43953;45.508;-122.806;2023-04-16T00:35:51;101055.34;;;16.75;42.90
50852;BME280;43953;45.508;-122.806;2023-04-16T00:36:24;101057.25;;;16.75;43.10
50852;BME280;43953;45.508;-122.806;2023-04-16T00:36:57;101061.88;;;16.74;43.06
50852;BME280;43953;45.508;-122.806;2023-04-16T00:37:29;101057.47;;;16.73;42.60
50852;BME280;43953;45.508;-122.806;2023-04-16T00:38:01;101060.50;;;16.60;42.40
50852;BME280;43953;45.508;-122.806;2023-04-16T00:38:33;101058.00;;;16.58;42.59
50852;BME280;43953;45.508;-122.806;2023-04-16T00:39:05;101055.53;;;16.57;42.62
50852;BME280;43953;45.508;-122.806;2023-04-16T00:39:36;101054.72;;;16.56;43.04
50852;BME280;43953;45.508;-122.806;2023-04-16T00:40:08;101053.88;;;16.56;42.24
50852;BME280;43953;45.508;-122.806;2023-04-16T00:40:41;101056.00;;;16.54;42.21
50852;BME280;43953;45.508;-122.806;2023-04-16T00:41:12;101063.34;;;16.53;42.17
50852;BME280;43953;45.508;-122.806;2023-04-16T00:41:45;101063.56;;;16.52;42.02
50852;BME280;43953;45.508;-122.806;2023-04-16T00:42:17;101058.63;;;16.49;41.41
50852;BME280;43953;45.508;-122.806;2023-04-16T00:42:48;101062.41;;;16.48;41.94
50852;BME280;43953;45.508;-122.806;2023-04-16T00:43:26;101060.75;;;16.47;42.52
50852;BME280;43953;45.508;-122.806;2023-04-16T00:43:58;101070.78;;;16.46;42.71
50852;BME280;43953;45.508;-122.806;2023-04-16T00:44:30;101068.91;;;16.47;42.93
50852;BME280;43953;45.508;-122.806;2023-04-16T00:45:01;101069.97;;;16.46;42.96
50852;BME280;43953;45.508;-122.806;2023-04-16T00:45:34;101069.16;;;16.45;43.16
50852;BME280;43953;45.508;-122.806;2023-04-16T00:46:07;101064.53;;;16.46;42.84
50852;BME280;43953;45.508;-122.806;2023-04-16T00:46:39;101059.09;;;16.46;42.77
50852;BME280;43953;45.508;-122.806;2023-04-16T00:47:12;101056.97;;;16.48;42.51
50852;BME280;43953;45.508;-122.806;2023-04-16T00:47:44;101069.50;;;16.49;42.53
50852;BME280;43953;45.508;-122.806;2023-04-16T00:48:16;101068.41;;;16.50;42.81
50852;BME280;43953;45.508;-122.806;2023-04-16T00:48:48;101061.94;;;16.51;42.72
50852;BME280;43953;45.508;-122.806;2023-04-16T00:49:22;101061.94;;;16.51;42.54
50852;BME280;43953;45.508;-122.806;2023-04-16T00:49:54;101054.81;;;16.50;42.71
50852;BME280;43953;45.508;-122.806;2023-04-16T00:50:26;101060.84;;;16.52;42.62
50852;BME280;43953;45.508;-122.806;2023-04-16T00:50:58;101058.97;;;16.52;42.62
50852;BME280;43953;45.508;-122.806;2023-04-16T00:51:31;101061.69;;;16.52;42.58
50852;BME280;43953;45.508;-122.806;2023-04-16T00:52:05;101052.69;;;16.52;42.68
50852;BME280;43953;45.508;-122.806;2023-04-16T00:52:37;101058.97;;;16.52;42.86
50852;BME280;43953;45.508;-122.806;2023-04-16T00:53:09;101050.81;;;16.52;42.89
50852;BME280;43953;45.508;-122.806;2023-04-16T00:53:41;101041.81;;;16.52;43.05
50852;BME280;43953;45.508;-122.806;2023-04-16T00:54:13;101049.75;;;16.53;42.94
50852;BME280;43953;45.508;-122.806;2023-04-16T00:54:45;101058.47;;;16.55;43.25
50852;BME280;43953;45.508;-122.806;2023-04-16T00:55:17;101045.72;;;16.56;43.23
50852;BME280;43953;45.508;-122.806;2023-04-16T00:55:50;101043.84;;;16.56;43.13
50852;BME280;43953;45.508;-122.806;2023-04-16T00:56:23;101045.47;;;16.57;43.07
50852;BME280;43953;45.508;-122.806;2023-04-16T00:56:56;101050.91;;;16.57;43.05
50852;BME280;43953;45.508;-122.806;2023-04-16T00:57:29;101048.91;;;16.53;42.54
50852;BME280;43953;45.508;-122.806;2023-04-16T00:58:02;101043.47;;;16.53;42.56
50852;BME280;43953;45.508;-122.806;2023-04-16T00:58:34;101044.78;;;16.50;42.60
50852;BME280;43953;45.508;-122.806;2023-04-16T00:59:06;101043.63;;;16.46;42.35
50852;BME280;43953;45.508;-122.806;2023-04-16T00:59:40;101040.44;;;16.37;42.64
50852;BME280;43953;45.508;-122.806;2023-04-16T01:00:12;101046.34;;;16.34;42.79
50852;BME280;43953;45.508;-122.806;2023-04-16T01:00:44;101041.19;;;16.33;43.08
50852;BME280;43953;45.508;-122.806;2023-04-16T01:01:15;101048.47;;;16.32;43.21
50852;BME280;43953;45.508;-122.806;2023-04-16T01:01:47;101043.03;;;16.32;43.23
50852;BME280;43953;45.508;-122.806;2023-04-16T01:02:19;101041.06;;;16.28;43.17
50852;BME280;43953;45.508;-122.806;2023-04-16T01:02:52;101038.56;;;16.26;43.11
50852;BME280;43953;45.508;-122.806;2023-04-16T01:03:38;101043.19;;;16.26;42.90
50852;BME280;43953;45.508;-122.806;2023-04-16T01:04:09;101047.78;;;16.25;43.12
50852;BME280;43953;45.508;-122.806;2023-04-16T01:04:41;101042.56;;;16.24;43.57
50852;BME280;43953;45.508;-122.806;2023-04-16T01:05:13;101042.34;;;16.25;43.52
50852;BME280;43953;45.508;-122.806;2023-04-16T01:05:45;101042.34;;;16.25;43.73
50852;BME280;43953;45.508;-122.806;2023-04-16T01:06:19;101042.56;;;16.24;43.82
50852;BME280;43953;45.508;-122.806;2023-04-16T01:06:51;101041.66;;;16.18;43.40
50852;BME280;43953;45.508;-122.806;2023-04-16T01:07:23;101032.81;;;16.11;43.26
50852;BME280;43953;45.508;-122.806;2023-04-16T01:07:58;101037.06;;;16.07;43.39
50852;BME280;43953;45.508;-122.806;2023-04-16T01:08:31;101043.53;;;16.06;43.57
50852;BME280;43953;45.508;-122.806;2023-04-16T01:09:03;101044.16;;;16.08;43.81
50852;BME280;43953;45.508;-122.806;2023-04-16T01:09:35;101036.81;;;16.08;43.87
50852;BME280;43953;45.508;-122.806;2023-04-16T01:10:07;101041.19;;;16.09;43.81
50852;BME280;43953;45.508;-122.806;2023-04-16T01:10:39;101042.03;;;16.10;44.05
50852;BME280;43953;45.508;-122.806;2023-04-16T01:11:12;101042.03;;;16.10;43.69
50852;BME280;43953;45.508;-122.806;2023-04-16T01:11:45;101035.16;;;16.07;43.53
50852;BME280;43953;45.508;-122.806;2023-04-16T01:12:17;101035.41;;;16.06;43.58
50852;BME280;43953;45.508;-122.806;2023-04-16T01:12:48;101036.72;;;16.03;43.47
50852;BME280;43953;45.508;-122.806;2023-04-16T01:13:20;101038.25;;;15.99;43.45
50852;BME280;43953;45.508;-122.806;2023-04-16T01:13:52;101038.72;;;15.96;43.53
50852;BME280;43953;45.508;-122.806;2023-04-16T01:14:23;101037.91;;;15.96;43.98
50852;BME280;43953;45.508;-122.806;2023-04-16T01:14:55;101038.72;;;15.96;43.88
50852;BME280;43953;45.508;-122.806;2023-04-16T01:15:27;101041.69;;;15.95;43.84
50852;BME280;43953;45.508;-122.806;2023-04-16T01:16:00;101037.28;;;15.93;44.09
50852;BME280;43953;45.508;-122.806;2023-04-16T01:16:32;101031.88;;;15.93;43.85
50852;BME280;43953;45.508;-122.806;2023-04-16T01:17:03;101031.03;;;15.93;43.63
50852;BME280;43953;45.508;-122.806;2023-04-16T01:17:35;101034.34;;;15.95;43.76
50852;BME280;43953;45.508;-122.806;2023-04-16T01:18:14;101035.06;;;15.90;43.61
50852;BME280;43953;45.508;-122.806;2023-04-16T01:18:46;101033.41;;;15.89;43.46
50852;BME280;43953;45.508;-122.806;2023-04-16T01:19:18;101030.91;;;15.88;43.47
50852;BME280;43953;45.508;-122.806;2023-04-16T01:19:50;101024.66;;;15.87;43.80
50852;BME280;43953;45.508;-122.806;2023-04-16T01:20:21;101035.53;;;15.87;43.64
50852;BME280;43953;45.508;-122.806;2023-04-16T01:20:53;101030.09;;;15.87;43.59
50852;BME280;43953;45.508;-122.806;2023-04-16T01:21:25;101030.09;;;15.87;43.63
50852;BME280;43953;45.508;-122.806;2023-04-16T01:21:58;101030.56;;;15.84;43.53
50852;BME280;43953;45.508;-122.806;2023-04-16T01:22:29;101028.94;;;15.83;43.46
50852;BME280;43953;45.508;-122.806;2023-04-16T01:23:01;101037.69;;;15.85;43.72
50852;BME280;43953;45.508;-122.806;2023-04-16T01:23:33;101033.28;;;15.84;43.73
50852;BME280;43953;45.508;-122.806;2023-04-16T01:24:05;101033.28;;;15.84;43.56
50852;BME280;43953;45.508;-122.806;2023-04-16T01:24:38;101036.00;;;15.84;43.54
50852;BME280;43953;45.508;-122.806;2023-04-16T01:25:13;101036.00;;;15.84;43.50
50852;BME280;43953;45.508;-122.806;2023-04-16T01:25:46;101028.94;;;15.83;43.54
50852;BME280;43953;45.508;-122.806;2023-04-16T01:26:18;101033.28;;;15.84;43.57
50852;BME280;43953;45.508;-122.806;2023-04-16T01:26:49;101033.28;;;15.84;43.43
50852;BME280;43953;45.508;-122.806;2023-04-16T01:27:21;101033.28;;;15.84;43.48
50852;BME280;43953;45.508;-122.806;2023-04-16T01:27:53;101034.97;;;15.85;43.63
50852;BME280;43953;45.508;-122.806;2023-04-16T01:28:25;101036.00;;;15.84;43.57
50852;BME280;43953;45.508;-122.806;2023-04-16T01:28:57;101035.53;;;15.76;43.67
50852;BME280;43953;45.508;-122.806;2023-04-16T01:29:28;101035.19;;;15.72;43.66
50852;BME280;43953;45.508;-122.806;2023-04-16T01:30:00;101041.69;;;15.71;43.76
50852;BME280;43953;45.508;-122.806;2023-04-16T01:30:32;101033.38;;;15.66;43.45
50852;BME280;43953;45.508;-122.806;2023-04-16T01:31:04;101036.31;;;15.64;43.86
50852;BME280;43953;45.508;-122.806;2023-04-16T01:31:36;101034.66;;;15.63;43.93
50852;BME280;43953;45.508;-122.806;2023-04-16T01:32:08;101033.84;;;15.63;43.85
50852;BME280;43953;45.508;-122.806;2023-04-16T01:32:39;101030.06;;;15.64;43.73
50852;BME280;43953;45.508;-122.806;2023-04-16T01:33:12;101032.78;;;15.64;43.80
50852;BME280;43953;45.508;-122.806;2023-04-16T01:33:44;101030.66;;;15.66;43.66
50852;BME280;43953;45.508;-122.806;2023-04-16T01:34:16;101031.72;;;15.65;43.69
50852;BME280;43953;45.508;-122.806;2023-04-16T01:34:47;101036.09;;;15.66;43.72
50852;BME280;43953;45.508;-122.806;2023-04-16T01:35:19;101033.38;;;15.66;43.68
50852;BME280;43953;45.508;-122.806;2023-04-16T01:35:51;101032.19;;;15.62;43.89
50852;BME280;43953;45.508;-122.806;2023-04-16T01:36:23;101027.25;;;15.59;43.96
50852;BME280;43953;45.508;-122.806;2023-04-16T01:36:54;101028.06;;;15.59;43.93
50852;BME280;43953;45.508;-122.806;2023-04-16T01:37:26;101029.97;;;15.59;43.99
50852;BME280;43953;45.508;-122.806;2023-04-16T01:37:58;101029.97;;;15.59;43.92
50852;BME280;43953;45.508;-122.806;2023-04-16T01:38:29;101032.66;;;15.59;44.04
50852;BME280;43953;45.508;-122.806;2023-04-16T01:39:01;101031.59;;;15.60;43.92
50852;BME280;43953;45.508;-122.806;2023-04-16T01:39:33;101030.53;;;15.61;44.15
50852;BME280;43953;45.508;-122.806;2023-04-16T01:40:06;101021.34;;;15.62;44.06
50852;BME280;43953;45.508;-122.806;2023-04-16T01:40:38;101031.72;;;15.65;44.48
50852;BME280;43953;45.508;-122.806;2023-04-16T01:41:09;101027.94;;;15.66;44.56
50852;BME280;43953;45.508;-122.806;2023-04-16T01:41:41;101028.56;;;15.68;45.20
50852;BME280;43953;45.508;-122.806;2023-04-16T01:42:13;101025.59;;;15.69;45.11
50852;BME280;43953;45.508;-122.806;2023-04-16T01:42:45;101025.38;;;15.71;44.65
50852;BME280;43953;45.508;-122.806;2023-04-16T01:43:17;101018.28;;;15.70;44.42
50852;BME280;43953;45.508;-122.806;2023-04-16T01:43:49;101023.16;;;15.68;44.11
50852;BME280;43953;45.508;-122.806;2023-04-16T01:44:20;101022.50;;;15.66;44.00
50852;BME280;43953;45.508;-122.806;2023-04-16T01:44:53;101029.59;;;15.67;44.05
50852;BME280;43953;45.508;-122.806;2023-04-16T01:45:25;101020.88;;;15.65;44.21
50852;BME280;43953;45.508;-122.806;2023-04-16T01:46:17;101019.19;;;15.64;44.75
50852;BME280;43953;45.508;-122.806;2023-04-16T01:46:50;101019.19;;;15.64;44.65
50852;BME280;43953;45.508;-122.806;2023-04-16T01:47:22;101020.03;;;15.64;44.96
50852;BME280;43953;45.508;-122.806;2023-04-16T01:47:54;101020.88;;;15.65;44.97
50852;BME280;43953;45.508;-122.806;2023-04-16T01:48:26;101025.84;;;15.68;45.13
50852;BME280;43953;45.508;-122.806;2023-04-16T01:48:58;101026.69;;;15.68;45.07
50852;BME280;43953;45.508;-122.806;2023-04-16T01:49:29;101026.44;;;15.70;44.99
50852;BME280;43953;45.508;-122.806;2023-04-16T01:50:02;101028.09;;;15.71;45.18
50852;BME280;43953;45.508;-122.806;2023-04-16T01:50:34;101031.38;;;15.73;44.96
50852;BME280;43953;45.508;-122.806;2023-04-16T01:51:06;101028.69;;;15.73;45.17
50852;BME280;43953;45.508;-122.806;2023-04-16T01:51:38;101026.56;;;15.75;45.12
50852;BME280;43953;45.508;-122.806;2023-04-16T01:52:09;101027.38;;;15.76;45.39
50852;BME280;43953;45.508;-122.806;2023-04-16T01:52:41;101030.91;;;15.76;45.35
50852;BME280;43953;45.508;-122.806;2023-04-16T01:53:13;101028.81;;;15.78;45.14
50852;BME280;43953;45.508;-122.806;2023-04-16T01:53:45;101027.16;;;15.77;45.27
50852;BME280;43953;45.508;-122.806;2023-04-16T01:54:17;101023.38;;;15.78;45.18
50852;BME280;43953;45.508;-122.806;2023-04-16T01:54:48;101025.00;;;15.79;45.20
50852;BME280;43953;45.508;-122.806;2023-04-16T01:55:20;101018.75;;;15.79;45.28
50852;BME280;43953;45.508;-122.806;2023-04-16T01:55:52;101022.31;;;15.79;45.17
50852;BME280;43953;45.508;-122.806;2023-04-16T01:56:24;101030.22;;;15.81;44.98
50852;BME280;43953;45.508;-122.806;2023-04-16T01:56:56;101028.81;;;15.78;44.74
50852;BME280;43953;45.508;-122.806;2023-04-16T01:57:28;101020.91;;;15.77;44.70
50852;BME280;43953;45.508;-122.806;2023-04-16T01:58:00;101020.31;;;15.75;44.71
50852;BME280;43953;45.508;-122.806;2023-04-16T01:58:32;101022.41;;;15.73;44.77
50852;BME280;43953;45.508;-122.806;2023-04-16T01:59:04;101025.97;;;15.73;44.89
50852;BME280;43953;45.508;-122.806;2023-04-16T01:59:36;101024.56;;;15.71;44.85
50852;BME280;43953;45.508;-122.806;2023-04-16T02:00:08;101020.19;;;15.69;44.91
50852;BME280;43953;45.508;-122.806;2023-04-16T02:00:40;101021.00;;;15.70;45.15
50852;BME280;43953;45.508;-122.806;2023-04-16T02:01:12;101029.16;;;15.70;44.99
50852;BME280;43953;45.508;-122.806;2023-04-16T02:01:44;101019.13;;;15.71;45.02
50852;BME280;43953;45.508;-122.806;2023-04-16T02:02:16;101015.56;;;15.70;45.17
50852;BME280;43953;45.508;-122.806;2023-04-16T02:02:48;101018.28;;;15.70;45.27
50852;BME280;43953;45.508;-122.806;2023-04-16T02:03:19;101013.72;;;15.71;44.95
50852;BME280;43953;45.508;-122.806;2023-04-16T02:03:51;101016.66;;;15.69;44.96
50852;BME280;43953;45.508;-122.806;2023-04-16T02:04:23;101015.00;;;15.68;44.52
50852;BME280;43953;45.508;-122.806;2023-04-16T02:04:55;101014.38;;;15.66;44.53
50852;BME280;43953;45.508;-122.806;2023-04-16T02:05:27;101019.19;;;15.64;44.63
50852;BME280;43953;45.508;-122.806;2023-04-16T02:05:59;101021.09;;;15.63;44.49
50852;BME280;43953;45.508;-122.806;2023-04-16T02:06:31;101014.25;;;15.61;44.59
50852;BME280;43953;45.508;-122.806;2023-04-16T02:07:04;101016.94;;;15.61;44.76
50852;BME280;43953;45.508;-122.806;2023-04-16T02:07:36;101013.41;;;15.60;44.84
50852;BME280;43953;45.508;-122.806;2023-04-16T02:08:07;101017.19;;;15.59;44.92
50852;BME280;43953;45.508;-122.806;2023-04-16T02:08:39;101014.50;;;15.59;44.94
50852;BME280;43953;45.508;-122.806;2023-04-16T02:09:11;101014.72;;;15.58;45.05
50852;BME280;43953;45.508;-122.806;2023-04-16T02:09:43;101014.72;;;15.58;44.94
50852;BME280;43953;45.508;-122.806;2023-04-16T02:10:15;101010.34;;;15.57;45.13
50852;BME280;43953;45.508;-122.806;2023-04-16T02:10:49;101009.28;;;15.58;45.20
50852;BME280;43953;45.508;-122.806;2023-04-16T02:11:20;101010.97;;;15.59;44.99
50852;BME280;43953;45.508;-122.806;2023-04-16T02:11:52;101013.06;;;15.57;44.83
50852;BME280;43953;45.508;-122.806;2023-04-16T02:12:25;101011.41;;;15.56;44.96
50852;BME280;43953;45.508;-122.806;2023-04-16T02:12:56;101011.03;;;15.52;44.77
50852;BME280;43953;45.508;-122.806;2023-04-16T02:13:28;101011.28;;;15.51;44.56
50852;BME280;43953;45.508;-122.806;2023-04-16T02:14:00;101003.63;;;15.47;44.64
50852;BME280;43953;45.508;-122.806;2023-04-16T02:14:32;101010.09;;;15.46;44.90
50852;BME280;43953;45.508;-122.806;2023-04-16T02:15:04;101005.13;;;15.43;44.92
50852;BME280;43953;45.508;-122.806;2023-04-16T02:15:37;101005.13;;;15.43;45.21
50852;BME280;43953;45.508;-122.806;2023-04-16T02:16:09;101006.22;;;15.42;45.32
50852;BME280;43953;45.508;-122.806;2023-04-16T02:16:40;101003.50;;;15.42;45.23
50852;BME280;43953;45.508;-122.806;2023-04-16T02:17:12;101006.22;;;15.42;45.28
50852;BME280;43953;45.508;-122.806;2023-04-16T02:17:45;101000.78;;;15.42;45.34
50852;BME280;43953;45.508;-122.806;2023-04-16T02:18:18;101007.84;;;15.43;45.18
50852;BME280;43953;45.508;-122.806;2023-04-16T02:18:50;101000.78;;;15.42;45.11
50852;BME280;43953;45.508;-122.806;2023-04-16T02:19:22;101001.84;;;15.41;44.81
50852;BME280;43953;45.508;-122.806;2023-04-16T02:19:54;101008.31;;;15.40;45.16
50852;BME280;43953;45.508;-122.806;2023-04-16T02:20:26;101002.06;;;15.40;45.27
50852;BME280;43953;45.508;-122.806;2023-04-16T02:20:58;101002.06;;;15.40;45.35
50852;BME280;43953;45.508;-122.806;2023-04-16T02:21:30;101001.47;;;15.38;45.29
50852;BME280;43953;45.508;-122.806;2023-04-16T02:22:02;100994.19;;;15.38;45.30
50852;BME280;43953;45.508;-122.806;2023-04-16T02:22:34;101000.44;;;15.39;45.07
50852;BME280;43953;45.508;-122.806;2023-04-16T02:23:06;101002.31;;;15.38;45.24
50852;BME280;43953;45.508;-122.806;2023-04-16T02:23:38;101005.03;;;15.38;45.41
50852;BME280;43953;45.508;-122.806;2023-04-16T02:24:11;100995.81;;;15.39;45.47
50852;BME280;43953;45.508;-122.806;2023-04-16T02:24:43;100996.63;;;15.40;45.35
50852;BME280;43953;45.508;-122.806;2023-04-16T02:25:15;100999.59;;;15.38;45.21
50852;BME280;43953;45.508;-122.806;2023-04-16T02:25:46;100995.22;;;15.37;45.36
50852;BME280;43953;45.508;-122.806;2023-04-16T02:26:18;100996.28;;;15.36;45.27
50852;BME280;43953;45.508;-122.806;2023-04-16T02:26:50;100995.69;;;15.34;45.48
50852;BME280;43953;45.508;-122.806;2023-04-16T02:27:22;100991.09;;;15.35;45.39
50852;BME280;43953;45.508;-122.806;2023-04-16T02:27:53;100996.50;;;15.35;45.67
50852;BME280;43953;45.508;-122.806;2023-04-16T02:28:25;100990.03;;;15.36;45.61
50852;BME280;43953;45.508;-122.806;2023-04-16T02:28:57;100993.78;;;15.35;45.69
50852;BME280;43953;45.508;-122.806;2023-04-16T02:29:29;100993.56;;;15.36;45.77
50852;BME280;43953;45.508;-122.806;2023-04-16T02:30:02;100990.88;;;15.36;45.91
50852;BME280;43953;45.508;-122.806;2023-04-16T02:30:38;100985.44;;;15.36;45.85
50852;BME280;43953;45.508;-122.806;2023-04-16T02:31:10;100985.44;;;15.36;45.65
50852;BME280;43953;45.508;-122.806;2023-04-16T02:31:41;100986.72;;;15.34;45.48
50852;BME280;43953;45.508;-122.806;2023-04-16T02:32:14;100990.50;;;15.33;45.45
50852;BME280;43953;45.508;-122.806;2023-04-16T02:32:46;100980.94;;;15.30;45.57
50852;BME280;43953;45.508;-122.806;2023-04-16T02:33:18;100986.38;;;15.30;45.76
50852;BME280;43953;45.508;-122.806;2023-04-16T02:33:50;100989.31;;;15.29;45.78
50852;BME280;43953;45.508;-122.806;2023-04-16T02:34:22;100987.66;;;15.28;45.87
50852;BME280;43953;45.508;-122.806;2023-04-16T02:34:53;100987.66;;;15.28;45.78
50852;BME280;43953;45.508;-122.806;2023-04-16T02:35:27;100990.59;;;15.26;45.85
50852;BME280;43953;45.508;-122.806;2023-04-16T02:35:58;100986.03;;;15.27;45.82
50852;BME280;43953;45.508;-122.806;2023-04-16T02:36:30;100991.66;;;15.25;45.88
50852;BME280;43953;45.508;-122.806;2023-04-16T02:37:02;100987.31;;;15.24;45.60
50852;BME280;43953;45.508;-122.806;2023-04-16T02:37:34;100988.34;;;15.23;45.60
50852;BME280;43953;45.508;-122.806;2023-04-16T02:38:06;100985.63;;;15.23;45.61
50852;BME280;43953;45.508;-122.806;2023-04-16T02:38:38;100978.56;;;15.22;45.97
50852;BME280;43953;45.508;-122.806;2023-04-16T02:39:10;100980.47;;;15.21;46.04
50852;BME280;43953;45.508;-122.806;2023-04-16T02:39:42;100988.59;;;15.21;46.09
50852;BME280;43953;45.508;-122.806;2023-04-16T02:40:14;100979.63;;;15.21;45.77
50852;BME280;43953;45.508;-122.806;2023-04-16T02:40:46;100980.69;;;15.20;46.05
50852;BME280;43953;45.508;-122.806;2023-04-16T02:41:17;100978.22;;;15.18;45.75
50852;BME280;43953;45.508;-122.806;2023-04-16T02:41:49;100987.16;;;15.19;45.76